createdAt,value
2023-01-30T00:01:56.027Z,98572.25
2023-01-30T00:04:22.580Z,98559.19
2023-01-30T00:06:49.316Z,98526.16
2023-01-30T00:09:20.811Z,98535.66
2023-01-30T00:11:48.575Z,98540.03
2023-01-30T00:14:15.382Z,98516.63
2023-01-30T00:16:42.757Z,98533.97
2023-01-30T00:19:09.437Z,98546.06
2023-01-30T00:21:35.925Z,98543.47
2023-01-30T00:24:02.440Z,98558.31
2023-01-30T00:26:28.978Z,98541.88
2023-01-30T00:28:55.692Z,98557.84
2023-01-30T00:31:22.251Z,98490.25
2023-01-30T00:33:53.264Z,98506.72
2023-01-30T00:36:19.954Z,98498.06
2023-01-30T00:38:46.428Z,98451.91
2023-01-30T00:41:15.282Z,98413.56
2023-01-30T00:44:00.276Z,98405.53
2023-01-30T00:46:51.216Z,98406.50
2023-01-30T00:49:21.289Z,98417.72
2023-01-30T00:51:47.827Z,98431.78
2023-01-30T00:54:17.432Z,98456.38
2023-01-30T00:56:43.950Z,98453.88
2023-01-30T00:59:10.933Z,98459.09
2023-01-30T01:01:37.991Z,98510.47
2023-01-30T01:04:06.479Z,98527.13
2023-01-30T01:06:33.031Z,98516.78
2023-01-30T01:09:02.969Z,98508.88
2023-01-30T01:11:29.481Z,98513.50
2023-01-30T01:14:00.907Z,98494.69
2023-01-30T01:16:31.070Z,98477.47
2023-01-30T01:18:57.801Z,98458.38
2023-01-30T01:21:24.438Z,98453.22
2023-01-30T01:23:52.405Z,98433.19
2023-01-30T01:26:19.882Z,98411.31
2023-01-30T01:28:49.430Z,98415.91
2023-01-30T01:31:17.411Z,98436.06
2023-01-30T01:33:47.268Z,98405.78
2023-01-30T01:36:29.412Z,98394.38
2023-01-30T01:39:00.390Z,98418.41
2023-01-30T01:41:26.859Z,98422.28
2023-01-30T01:44:12.837Z,98428.16
2023-01-30T01:46:48.719Z,98417.72
2023-01-30T01:49:20.991Z,98403.72
2023-01-30T01:51:51.507Z,98375.09
2023-01-30T01:54:42.577Z,98375.00
2023-01-30T01:57:18.119Z,98343.72
2023-01-30T02:00:01.978Z,98328.72
2023-01-30T02:02:28.515Z,98353.03
2023-01-30T02:05:02.353Z,98343.41
2023-01-30T02:07:37.672Z,98350.44
2023-01-30T02:10:06.313Z,98347.88
2023-01-30T02:12:33.014Z,98356.53
2023-01-30T02:15:04.625Z,98353.84
2023-01-30T02:17:31.262Z,98323.47
2023-01-30T02:20:10.149Z,98321.78
2023-01-30T02:22:46.132Z,98324.34
2023-01-30T02:25:39.750Z,98329.56
2023-01-30T02:28:30.482Z,98351.25
2023-01-30T02:31:13.770Z,98327.69
2023-01-30T02:34:00.895Z,98318.97
2023-01-30T02:36:59.417Z,98290.19
2023-01-30T02:39:51.800Z,98310.09
2023-01-30T02:42:40.048Z,98296.31
2023-01-30T02:45:32.371Z,98307.69
2023-01-30T02:48:17.152Z,98294.72
2023-01-30T02:50:56.893Z,98291.34
2023-01-30T02:53:23.863Z,98281.75
2023-01-30T02:55:50.379Z,98283.56
2023-01-30T02:58:22.806Z,98279.38
2023-01-30T03:01:11.164Z,98293.28
2023-01-30T03:03:48.672Z,98295.06
2023-01-30T03:06:41.611Z,98273.31
2023-01-30T03:09:35.976Z,98266.38
2023-01-30T03:12:19.431Z,98262.91
2023-01-30T03:15:01.199Z,98251.63
2023-01-30T03:17:32.852Z,98240.28
2023-01-30T03:19:59.872Z,98239.41
2023-01-30T03:22:26.532Z,98255.97
2023-01-30T03:24:54.331Z,98275.13
2023-01-30T03:27:22.700Z,98270.81
2023-01-30T03:29:51.968Z,98273.44
2023-01-30T03:32:21.320Z,98262.28
2023-01-30T03:34:47.826Z,98253.59
2023-01-30T03:37:23.776Z,98252.72
2023-01-30T03:39:50.268Z,98237.16
2023-01-30T03:42:16.819Z,98224.16
2023-01-30T03:44:43.303Z,98231.06
2023-01-30T03:47:09.788Z,98196.25
2023-01-30T03:49:36.270Z,98210.13
2023-01-30T03:52:02.700Z,98205.13
2023-01-30T03:54:29.279Z,98222.53
2023-01-30T03:56:55.751Z,98223.41
2023-01-30T03:59:22.248Z,98190.38
2023-01-30T04:01:48.761Z,98178.94
2023-01-30T04:04:15.257Z,98191.09
2023-01-30T04:06:41.708Z,98183.28
2023-01-30T04:09:08.269Z,98178.91
2023-01-30T04:11:34.741Z,98167.56
2023-01-30T04:14:01.220Z,98157.97
2023-01-30T04:16:28.053Z,98154.47
2023-01-30T04:18:57.789Z,98159.75
2023-01-30T04:21:24.342Z,98159.75
2023-01-30T04:23:50.849Z,98153.69
2023-01-30T04:26:20.750Z,98131.84
2023-01-30T04:28:47.321Z,98153.66
2023-01-30T04:31:14.246Z,98132.72
2023-01-30T04:33:41.845Z,98158.81
2023-01-30T04:36:10.148Z,98164.97
2023-01-30T04:38:37.411Z,98143.22
2023-01-30T04:41:04.747Z,98156.28
2023-01-30T04:43:32.187Z,98147.69
2023-01-30T04:45:58.695Z,98138.19
2023-01-30T04:48:26.330Z,98135.56
2023-01-30T04:50:54.923Z,98139.88
2023-01-30T04:53:22.211Z,98130.28
2023-01-30T04:55:49.037Z,98149.38
2023-01-30T04:58:16.747Z,98149.44
2023-01-30T05:00:43.241Z,98157.25
2023-01-30T05:03:09.746Z,98154.66
2023-01-30T05:05:36.285Z,98152.03
2023-01-30T05:08:03.000Z,98144.31
2023-01-30T05:10:29.557Z,98141.75
2023-01-30T05:12:56.289Z,98139.09
2023-01-30T05:15:22.843Z,98141.69
2023-01-30T05:17:49.319Z,98126.09
2023-01-30T05:20:15.933Z,98130.41
2023-01-30T05:22:42.468Z,98140.84
2023-01-30T05:25:09.581Z,98132.19
2023-01-30T05:27:36.100Z,98122.72
2023-01-30T05:30:02.752Z,98135.91
2023-01-30T05:32:31.163Z,98120.25
2023-01-30T05:34:57.839Z,98122.84
2023-01-30T05:37:24.806Z,98120.31
2023-01-30T05:39:51.526Z,98109.88
2023-01-30T05:42:18.129Z,98113.31
2023-01-30T05:44:44.721Z,98104.69
2023-01-30T05:47:11.186Z,98110.75
2023-01-30T05:49:37.699Z,98114.44
2023-01-30T05:52:04.329Z,98107.44
2023-01-30T05:54:31.136Z,98113.47
2023-01-30T05:56:57.615Z,98105.63
2023-01-30T05:59:24.122Z,98104.84
2023-01-30T06:01:50.551Z,98104.00
2023-01-30T06:04:17.045Z,98086.66
2023-01-30T06:06:43.542Z,98085.91
2023-01-30T06:09:10.822Z,98071.97
2023-01-30T06:11:37.310Z,98081.59
2023-01-30T06:14:03.832Z,98077.38
2023-01-30T06:16:30.464Z,98088.75
2023-01-30T06:18:57.019Z,98086.19
2023-01-30T06:21:23.521Z,98092.47
2023-01-30T06:23:50.105Z,98090.84
2023-01-30T06:26:16.704Z,98094.53
2023-01-30T06:28:43.390Z,98088.66
2023-01-30T06:31:10.260Z,98082.56
2023-01-30T06:33:36.993Z,98096.47
2023-01-30T06:36:04.066Z,98099.94
2023-01-30T06:38:30.682Z,98097.25
2023-01-30T06:40:57.183Z,98101.50
2023-01-30T06:43:23.673Z,98094.66
2023-01-30T06:45:50.212Z,98091.19
2023-01-30T06:48:16.736Z,98106.06
2023-01-30T06:50:43.250Z,98114.06
2023-01-30T06:53:10.998Z,98114.19
2023-01-30T06:55:38.341Z,98118.56
2023-01-30T06:58:09.973Z,98133.28
2023-01-30T07:00:39.551Z,98122.84
2023-01-30T07:03:13.817Z,98126.31
2023-01-30T07:05:41.145Z,98132.47
2023-01-30T07:08:08.040Z,98128.91
2023-01-30T07:10:35.868Z,98128.91
2023-01-30T07:13:03.181Z,98127.25
2023-01-30T07:15:29.764Z,98134.22
2023-01-30T07:17:56.464Z,98122.13
2023-01-30T07:20:23.024Z,98131.69
2023-01-30T07:22:54.654Z,98133.53
2023-01-30T07:25:23.277Z,98124.84
2023-01-30T07:27:53.838Z,98128.31
2023-01-30T07:30:20.688Z,98127.44
2023-01-30T07:32:52.364Z,98114.44
2023-01-30T07:35:19.409Z,98086.66
2023-01-30T07:37:47.522Z,98103.38
2023-01-30T07:40:15.027Z,98120.88
2023-01-30T07:42:41.742Z,98122.69
2023-01-30T07:45:08.955Z,98100.09
2023-01-30T07:47:35.425Z,98102.72
2023-01-30T07:50:02.342Z,98104.56
2023-01-30T07:52:28.780Z,98116.78
2023-01-30T07:54:55.343Z,98129.97
2023-01-30T07:57:21.857Z,98126.66
2023-01-30T07:59:48.369Z,98131.09
2023-01-30T08:02:14.800Z,98142.41
2023-01-30T08:04:41.293Z,98151.97
2023-01-30T08:07:07.831Z,98153.69
2023-01-30T08:09:35.835Z,98151.19
2023-01-30T08:12:02.419Z,98146.75
2023-01-30T08:14:32.210Z,98154.72
2023-01-30T08:16:58.756Z,98147.78
2023-01-30T08:19:25.284Z,98167.22
2023-01-30T08:21:51.796Z,98169.00
2023-01-30T08:24:20.944Z,98177.69
2023-01-30T08:26:50.562Z,98155.81
2023-01-30T08:29:17.031Z,98166.28
2023-01-30T08:31:44.425Z,98168.00
2023-01-30T08:34:11.093Z,98174.00
2023-01-30T08:36:38.910Z,98166.13
2023-01-30T08:39:05.496Z,98160.03
2023-01-30T08:41:31.954Z,98140.84
2023-01-30T08:43:59.603Z,98139.13
2023-01-30T08:46:26.083Z,98138.22
2023-01-30T08:48:52.578Z,98142.66
2023-01-30T08:51:19.048Z,98126.16
2023-01-30T08:53:45.547Z,98125.59
2023-01-30T08:56:12.079Z,98126.53
2023-01-30T08:58:38.604Z,98132.75
2023-01-30T09:01:06.358Z,98138.88
2023-01-30T09:03:32.940Z,98153.72
2023-01-30T09:05:59.457Z,98148.59
2023-01-30T09:08:26.053Z,98165.22
2023-01-30T09:10:52.515Z,98164.41
2023-01-30T09:13:19.101Z,98174.88
2023-01-30T09:15:45.669Z,98176.53
2023-01-30T09:18:12.238Z,98176.47
2023-01-30T09:20:38.909Z,98185.94
2023-01-30T09:23:05.451Z,98184.97
2023-01-30T09:25:31.984Z,98184.94
2023-01-30T09:27:58.456Z,98177.03
2023-01-30T09:30:25.065Z,98180.53
2023-01-30T09:32:51.772Z,98191.94
2023-01-30T09:35:18.271Z,98189.41
2023-01-30T09:37:53.418Z,98192.91
2023-01-30T09:40:28.044Z,98196.28
2023-01-30T09:43:22.277Z,98201.53
2023-01-30T09:46:19.545Z,98203.41
2023-01-30T09:49:04.284Z,98204.13
2023-01-30T09:51:47.684Z,98206.72
2023-01-30T09:54:21.836Z,98209.50
2023-01-30T09:57:21.196Z,98195.59
2023-01-30T10:00:20.245Z,98194.75
2023-01-30T10:02:49.780Z,98204.47
2023-01-30T10:05:19.013Z,98199.22
2023-01-30T10:08:01.076Z,98176.69
2023-01-30T10:11:14.269Z,98183.69
2023-01-30T10:13:43.714Z,98188.06
2023-01-30T10:16:21.271Z,98169.72
2023-01-30T10:19:06.171Z,98187.19
2023-01-30T10:21:56.995Z,98206.31
2023-01-30T10:24:51.486Z,98169.44
2023-01-30T10:27:20.819Z,98220.50
2023-01-30T10:29:57.149Z,98207.66
2023-01-30T10:32:32.641Z,98202.16
2023-01-30T10:35:13.223Z,98208.28
2023-01-30T10:37:45.990Z,98203.88
2023-01-30T10:40:29.902Z,98192.78
2023-01-30T10:43:29.903Z,98187.59
2023-01-30T10:46:04.893Z,98186.84
2023-01-30T10:48:46.023Z,98185.19
2023-01-30T10:51:22.402Z,98183.56
2023-01-30T10:54:02.085Z,98180.22
2023-01-30T10:56:43.768Z,98185.53
2023-01-30T10:59:55.903Z,98167.41
2023-01-30T11:02:47.402Z,98167.66
2023-01-30T11:05:18.659Z,98166.03
2023-01-30T11:07:47.347Z,98173.97
2023-01-30T11:10:20.059Z,98167.00
2023-01-30T11:12:46.821Z,98162.56
2023-01-30T11:15:13.386Z,98156.47
2023-01-30T11:17:42.034Z,98139.88
2023-01-30T11:20:15.279Z,98139.91
2023-01-30T11:22:47.921Z,98146.13
2023-01-30T11:25:21.779Z,98138.50
2023-01-30T11:28:03.481Z,98150.00
2023-01-30T11:30:34.850Z,98143.13
2023-01-30T11:33:21.853Z,98135.34
2023-01-30T11:36:24.905Z,98143.25
2023-01-30T11:39:05.087Z,98129.31
2023-01-30T11:41:31.724Z,98128.50
2023-01-30T11:44:03.319Z,98124.00
2023-01-30T11:46:42.633Z,98119.53
2023-01-30T11:49:45.820Z,98122.91
2023-01-30T11:52:06.224Z,98139.38
2023-01-30T11:54:39.781Z,98139.25
2023-01-30T11:57:11.664Z,98162.59
2023-01-30T11:59:49.453Z,98126.63
2023-01-30T12:02:25.085Z,98129.00
2023-01-30T12:04:55.627Z,98114.78
2023-01-30T12:07:30.425Z,98129.53
2023-01-30T12:09:58.480Z,98123.44
2023-01-30T12:12:29.428Z,98095.69
2023-01-30T12:15:25.455Z,98108.91
2023-01-30T12:18:03.853Z,98092.34
2023-01-30T12:20:39.296Z,98082.97
2023-01-30T12:23:11.527Z,98092.84
2023-01-30T12:26:01.082Z,98085.13
2023-01-30T12:29:01.475Z,98089.63
2023-01-30T12:31:46.331Z,98082.66
2023-01-30T12:34:12.855Z,98066.13
2023-01-30T12:37:17.023Z,98046.16
2023-01-30T12:39:43.465Z,98040.91
2023-01-30T12:45:21.557Z,98055.81
2023-01-30T12:47:52.706Z,98052.38
2023-01-30T12:50:56.843Z,98054.97
2023-01-30T12:53:35.919Z,98059.19
2023-01-30T12:56:38.900Z,98059.13
2023-01-30T12:59:13.190Z,98046.72
2023-01-30T13:02:04.219Z,98038.78
2023-01-30T13:05:02.244Z,98038.72
2023-01-30T13:07:42.784Z,98058.84
2023-01-30T13:10:31.121Z,98049.31
2023-01-30T13:13:14.971Z,98065.00
2023-01-30T13:15:52.397Z,98074.53
2023-01-30T13:18:34.324Z,98103.25
2023-01-30T13:21:06.561Z,98104.97
2023-01-30T13:23:42.619Z,98120.81
2023-01-30T13:26:13.743Z,98131.16
2023-01-30T13:28:46.355Z,98143.31
2023-01-30T13:31:18.109Z,98158.81
2023-01-30T13:33:47.380Z,98144.78
2023-01-30T13:36:42.719Z,98159.50
2023-01-30T13:39:19.527Z,98155.94
2023-01-30T13:41:53.550Z,98157.63
2023-01-30T13:44:27.636Z,98167.13
2023-01-30T13:46:56.045Z,98201.91
2023-01-30T13:49:25.617Z,98191.53
2023-01-30T13:52:05.574Z,98194.84
2023-01-30T13:54:50.218Z,98195.72
2023-01-30T13:57:30.695Z,98193.03
2023-01-30T14:00:26.101Z,98187.91
2023-01-30T14:03:07.928Z,98189.66
2023-01-30T14:06:01.079Z,98189.69
2023-01-30T14:08:29.112Z,98187.00
2023-01-30T14:10:57.437Z,98192.97
2023-01-30T14:13:26.122Z,98187.69
2023-01-30T14:16:01.469Z,98181.69
2023-01-30T14:18:31.441Z,98189.66
2023-01-30T14:21:17.961Z,98201.19
2023-01-30T14:23:56.720Z,98187.34
2023-01-30T14:26:48.351Z,98207.59
2023-01-30T14:29:40.967Z,98191.94
2023-01-30T14:32:14.181Z,98202.50
2023-01-30T14:35:20.505Z,98211.41
2023-01-30T14:37:50.025Z,98207.03
2023-01-30T14:40:46.193Z,98212.31
2023-01-30T14:43:12.647Z,98214.94
2023-01-30T14:45:49.775Z,98228.22
2023-01-30T14:48:27.095Z,98215.22
2023-01-30T14:51:16.910Z,98241.44
2023-01-30T14:54:00.607Z,98240.56
2023-01-30T14:57:01.145Z,98277.19
2023-01-30T14:59:35.296Z,98293.72
2023-01-30T15:02:14.037Z,98318.94
2023-01-30T15:04:40.565Z,98339.91
2023-01-30T15:07:24.679Z,98312.88
2023-01-30T15:10:05.472Z,98343.47
2023-01-30T15:12:40.868Z,98336.50
2023-01-30T15:15:20.813Z,98339.09
2023-01-30T15:18:07.918Z,98367.00
2023-01-30T15:21:15.346Z,98351.28
2023-01-30T15:24:09.871Z,98369.56
2023-01-30T15:26:54.629Z,98354.66
2023-01-30T15:29:53.465Z,98356.47
2023-01-30T15:32:23.508Z,98372.16
2023-01-30T15:34:58.994Z,98384.25
2023-01-30T15:37:34.404Z,98387.78
2023-01-30T15:40:12.377Z,98393.91
2023-01-30T15:42:39.091Z,98387.78
2023-01-30T15:45:20.493Z,98400.72
2023-01-30T15:48:27.747Z,98394.69
2023-01-30T15:50:57.453Z,98384.28
2023-01-30T15:53:34.553Z,98401.72
2023-01-30T15:56:03.437Z,98410.41
2023-01-30T15:58:31.044Z,98425.34
2023-01-30T16:01:00.700Z,98426.38
2023-01-30T16:03:31.801Z,98417.59
2023-01-30T16:05:59.118Z,98427.22
2023-01-30T16:08:36.560Z,98437.72
2023-01-30T16:11:03.530Z,98445.72
2023-01-30T16:13:30.376Z,98448.38
2023-01-30T16:16:13.037Z,98453.75
2023-01-30T16:18:45.968Z,98461.50
2023-01-30T16:21:35.609Z,98458.03
2023-01-30T16:24:08.907Z,98467.72
2023-01-30T16:26:36.890Z,98483.47
2023-01-30T16:29:11.897Z,98495.56
2023-01-30T16:31:39.761Z,98497.28
2023-01-30T16:34:06.644Z,98519.25
2023-01-30T16:36:39.732Z,98513.22
2023-01-30T16:39:30.592Z,98509.50
2023-01-30T16:41:58.646Z,98531.44
2023-01-30T16:44:27.933Z,98540.28
2023-01-30T16:47:31.508Z,98545.19
2023-01-30T16:49:58.057Z,98538.16
2023-01-30T16:52:46.220Z,98537.09
2023-01-30T16:55:26.064Z,98546.75
2023-01-30T16:57:57.034Z,98549.56
2023-01-30T17:00:42.721Z,98547.28
2023-01-30T17:03:34.099Z,98549.78
2023-01-30T17:06:12.588Z,98550.59
2023-01-30T17:08:55.156Z,98561.03
2023-01-30T17:11:35.681Z,98563.63
2023-01-30T17:14:14.184Z,98571.50
2023-01-30T17:16:42.956Z,98582.00
2023-01-30T17:19:09.640Z,98568.69
2023-01-30T17:21:49.873Z,98571.13
2023-01-30T17:24:20.484Z,98578.09
2023-01-30T17:26:49.718Z,98585.13
2023-01-30T17:29:28.968Z,98586.94
2023-01-30T17:32:01.139Z,98586.84
2023-01-30T17:34:28.866Z,98591.25
2023-01-30T17:36:55.962Z,98592.88
2023-01-30T17:39:25.723Z,98604.34
2023-01-30T17:41:52.541Z,98600.84
2023-01-30T17:44:19.032Z,98608.66
2023-01-30T17:46:49.491Z,98621.91
2023-01-30T17:49:23.867Z,98639.47
2023-01-30T17:51:53.949Z,98653.38
2023-01-30T17:54:20.611Z,98660.31
2023-01-30T17:56:55.544Z,98680.22
2023-01-30T17:59:22.537Z,98679.78
2023-01-30T18:01:51.552Z,98684.94
2023-01-30T18:04:19.531Z,98683.84
2023-01-30T18:06:49.281Z,98702.22
2023-01-30T18:09:19.168Z,98698.53
2023-01-30T18:11:46.397Z,98693.22
2023-01-30T18:14:13.070Z,98687.09
2023-01-30T18:16:39.606Z,98696.72
2023-01-30T18:19:09.121Z,98709.75
2023-01-30T18:21:38.213Z,98713.34
2023-01-30T18:24:05.032Z,98717.84
2023-01-30T18:26:31.997Z,98716.31
2023-01-30T18:28:58.793Z,98718.00
2023-01-30T18:31:28.435Z,98718.25
2023-01-30T18:33:55.323Z,98735.03
2023-01-30T18:36:23.671Z,98735.97
2023-01-30T18:38:50.560Z,98736.97
2023-01-30T18:41:22.734Z,98731.69
2023-01-30T18:43:55.284Z,98728.22
2023-01-30T18:46:21.929Z,98722.94
2023-01-30T18:48:48.595Z,98737.00
2023-01-30T18:51:18.847Z,98737.94
2023-01-30T18:53:48.030Z,98737.13
2023-01-30T18:56:20.448Z,98734.31
2023-01-30T18:58:49.607Z,98739.56
2023-01-30T19:01:18.512Z,98751.94
2023-01-30T19:03:45.063Z,98746.56
2023-01-30T19:06:14.133Z,98753.50
2023-01-30T19:08:41.625Z,98758.81
2023-01-30T19:11:31.606Z,98747.34
2023-01-30T19:13:58.961Z,98761.31
2023-01-30T19:16:29.989Z,98761.25
2023-01-30T19:18:56.964Z,98775.28
2023-01-30T19:21:24.783Z,98779.03
2023-01-30T19:23:51.710Z,98781.72
2023-01-30T19:26:20.333Z,98793.78
2023-01-30T19:28:50.695Z,98787.53
2023-01-30T19:31:19.999Z,98803.25
2023-01-30T19:33:52.680Z,98812.81
2023-01-30T19:36:21.200Z,98807.59
2023-01-30T19:38:49.579Z,98811.09
2023-01-30T19:41:18.890Z,98811.91
2023-01-30T19:43:45.555Z,98812.91
2023-01-30T19:46:12.171Z,98827.75
2023-01-30T19:48:48.668Z,98806.00
2023-01-30T19:51:35.493Z,98815.41
2023-01-30T19:54:04.938Z,98826.78
2023-01-30T19:56:32.717Z,98829.44
2023-01-30T19:59:00.876Z,98816.31
2023-01-30T20:01:33.054Z,98818.81
2023-01-30T20:04:01.880Z,98831.81
2023-01-30T20:06:30.806Z,98842.31
2023-01-30T20:09:00.303Z,98830.19
2023-01-30T20:11:27.773Z,98828.53
2023-01-30T20:13:54.947Z,98834.78
2023-01-30T20:16:25.365Z,98845.19
2023-01-30T20:18:57.812Z,98846.97
2023-01-30T20:21:24.419Z,98850.41
2023-01-30T20:23:51.703Z,98848.47
2023-01-30T20:26:24.950Z,98854.69
2023-01-30T20:28:54.502Z,98864.31
2023-01-30T20:31:24.173Z,98849.50
2023-01-30T20:33:51.425Z,98874.00
2023-01-30T20:36:19.623Z,98875.13
2023-01-30T20:38:47.853Z,98869.72
2023-01-30T20:41:15.628Z,98888.09
2023-01-30T20:43:45.532Z,98883.66
2023-01-30T20:46:20.310Z,98881.84
2023-01-30T20:48:47.319Z,98885.19
2023-01-30T20:51:17.126Z,98900.09
2023-01-30T20:54:05.506Z,98907.06
2023-01-30T20:56:37.435Z,98900.84
2023-01-30T20:59:07.715Z,98910.47
2023-01-30T21:01:34.693Z,98919.13
2023-01-30T21:04:06.514Z,98909.63
2023-01-30T21:06:44.289Z,98927.03
2023-01-30T21:09:18.688Z,98931.28
2023-01-30T21:11:46.100Z,98925.50
2023-01-30T21:14:12.831Z,98934.22
2023-01-30T21:16:39.645Z,98933.41
2023-01-30T21:19:11.132Z,98937.72
2023-01-30T21:21:55.024Z,98940.41
2023-01-30T21:24:25.326Z,98933.38
2023-01-30T21:26:55.521Z,98940.16
2023-01-30T21:29:31.321Z,98944.63
2023-01-30T21:31:58.876Z,98952.56
2023-01-30T21:34:25.542Z,98954.25
2023-01-30T21:37:10.731Z,98948.16
2023-01-30T21:39:59.182Z,98943.81
2023-01-30T21:42:44.325Z,98949.91
2023-01-30T21:45:10.844Z,98946.38
2023-01-30T21:47:37.870Z,98948.75
2023-01-30T21:50:06.009Z,98955.69
2023-01-30T21:52:35.519Z,98963.56
2023-01-30T21:55:02.128Z,98967.13
2023-01-30T21:57:28.647Z,98975.06
2023-01-30T21:59:55.614Z,98988.94
2023-01-30T22:02:22.156Z,98988.88
2023-01-30T22:04:48.808Z,98998.66
2023-01-30T22:07:15.341Z,99001.13
2023-01-30T22:09:41.816Z,99001.66
2023-01-30T22:12:08.682Z,99003.38
2023-01-30T22:14:36.355Z,99007.78
2023-01-30T22:17:03.060Z,99010.41
2023-01-30T22:19:35.164Z,99010.25
2023-01-30T22:22:02.640Z,99010.13
2023-01-30T22:24:29.150Z,99017.78
2023-01-30T22:27:00.100Z,99015.16
2023-01-30T22:29:26.608Z,99007.16
2023-01-30T22:31:53.173Z,99008.97
2023-01-30T22:34:19.857Z,98997.94
2023-01-30T22:36:47.860Z,99005.66
2023-01-30T22:39:14.393Z,99002.91
2023-01-30T22:41:40.885Z,99003.03
2023-01-30T22:44:09.121Z,99001.19
2023-01-30T22:46:39.640Z,99011.72
2023-01-30T22:49:08.298Z,99011.59
2023-01-30T22:51:38.418Z,99015.97
2023-01-30T22:54:09.143Z,99006.56
2023-01-30T22:56:40.792Z,99014.28
2023-01-30T22:59:10.959Z,99016.97
2023-01-30T23:01:40.230Z,99012.78
2023-01-30T23:04:15.941Z,99022.00
2023-01-30T23:06:46.241Z,99028.88
2023-01-30T23:09:19.965Z,99037.44
2023-01-30T23:12:16.309Z,99040.91
2023-01-30T23:14:42.992Z,99045.25
2023-01-30T23:17:28.466Z,99040.63
2023-01-30T23:19:55.253Z,99047.28
2023-01-30T23:22:26.712Z,99062.00
2023-01-30T23:24:53.319Z,99058.38
2023-01-30T23:27:20.925Z,99052.16
2023-01-30T23:29:47.827Z,99058.97
2023-01-30T23:32:15.241Z,99056.13
2023-01-30T23:34:41.791Z,99068.97
2023-01-30T23:37:08.316Z,99062.00
2023-01-30T23:39:35.494Z,99062.81
2023-01-30T23:42:02.155Z,99052.50
2023-01-30T23:44:28.657Z,99056.84
2023-01-30T23:46:55.141Z,99058.63
2023-01-30T23:49:27.239Z,99051.59
2023-01-30T23:51:54.870Z,99047.56
2023-01-30T23:54:21.373Z,99048.31
2023-01-30T23:56:47.866Z,99059.50
2023-01-30T23:59:15.543Z,99049.22
